Time;durP1;ratioP1;P1;durP2;ratioP2;P2;SDS_P1;SDS_P2;PMS_P1;PMS_P2;Temp;Humidity;BMP_temperature;BMP_pressure;BME280_temperature;BME280_humidity;BME280_pressure;Samples;Min_cycle;Max_cycle;Signal;HPM_P1;HPM_P2
2022/09/25 00:01:13;;;;;;;5.03;3.70;;;;;;;8.21;100.00;100483.95;1739376;82;21072;-71
2022/09/25 00:03:40;;;;;;;6.92;3.37;;;;;;;8.26;100.00;100493.21;1731970;81;21026;-71
2022/09/25 00:06:12;;;;;;;3.85;3.10;;;;;;;8.32;100.00;100490.44;1730313;81;21045;-71
2022/09/25 00:08:39;;;;;;;5.03;3.30;;;;;;;8.30;100.00;100485.80;1748733;81;21025;-71
2022/09/25 00:11:11;;;;;;;4.53;3.25;;;;;;;8.25;100.00;100486.39;1744829;82;21097;-71
2022/09/25 00:13:40;;;;;;;4.20;3.30;;;;;;;8.14;100.00;100482.92;1736899;81;21057;-71
2022/09/25 00:16:12;;;;;;;4.10;3.40;;;;;;;8.14;100.00;100486.77;1740623;82;21033;-71
2022/09/25 00:21:29;;;;;;;3.85;3.30;;;;;;;8.13;100.00;100483.38;1727368;82;21545;-70
2022/09/25 00:23:54;;;;;;;4.70;3.30;;;;;;;8.13;100.00;100483.80;1727762;82;21174;-70
2022/09/25 00:26:21;;;;;;;5.62;3.02;;;;;;;8.12;100.00;100477.84;1732519;81;21098;-71
2022/09/25 00:28:48;;;;;;;3.50;3.20;;;;;;;8.09;100.00;100481.81;1736437;81;21029;-71
2022/09/25 00:31:23;;;;;;;4.30;3.58;;;;;;;8.05;100.00;100485.37;1720581;81;21056;-70
2022/09/25 00:33:56;;;;;;;5.47;3.40;;;;;;;8.07;100.00;100478.88;1736420;81;21501;-71
2022/09/25 00:36:22;;;;;;;3.65;3.05;;;;;;;8.07;100.00;100484.02;1736960;80;21084;-72
2022/09/25 00:38:49;;;;;;;4.28;3.30;;;;;;;8.07;100.00;100484.02;1742017;80;21078;-71
2022/09/25 00:41:19;;;;;;;4.12;3.47;;;;;;;8.07;100.00;100483.59;1729202;81;21011;-71
2022/09/25 00:43:51;;;;;;;4.50;3.30;;;;;;;8.06;100.00;100482.35;1724134;81;21023;-71
2022/09/25 00:46:34;;;;;;;3.90;3.45;;;;;;;8.09;100.00;100485.66;1732584;81;21058;-71
2022/09/25 00:49:14;;;;;;;3.98;3.47;;;;;;;8.07;100.00;100480.16;1724743;81;21018;-70
2022/09/25 00:51:49;;;;;;;3.87;3.20;;;;;;;8.05;100.00;100484.09;1720718;82;22221;-71
2022/09/25 00:54:28;;;;;;;3.58;3.20;;;;;;;8.10;100.00;100489.05;1730421;82;21083;-71
2022/09/25 00:56:58;;;;;;;5.22;3.17;;;;;;;8.07;100.00;100492.56;1736906;82;21034;-72
2022/09/25 00:59:36;;;;;;;3.75;3.02;;;;;;;8.08;100.00;100493.39;1697423;83;21062;-71
2022/09/25 01:02:04;;;;;;;3.47;3.08;;;;;;;8.03;100.00;100494.84;1700814;83;21074;-71
2022/09/25 01:04:34;;;;;;;5.22;3.00;;;;;;;8.03;100.00;100486.70;1701878;82;21559;-71
2022/09/25 01:07:02;;;;;;;3.35;3.05;;;;;;;8.02;100.00;100488.02;1724836;83;21077;-72
2022/09/25 01:09:30;;;;;;;3.98;3.25;;;;;;;7.98;100.00;100491.58;1700535;82;21117;-71
2022/09/25 01:11:57;;;;;;;4.05;3.52;;;;;;;7.98;100.00;100495.42;1700518;82;21007;-70
2022/09/25 01:14:25;;;;;;;3.72;3.15;;;;;;;7.96;100.00;100490.34;1711873;82;21098;-70
2022/09/25 01:17:13;;;;;;;3.87;3.20;;;;;;;7.93;100.00;100499.43;1711482;82;21042;-71
2022/09/25 01:19:54;;;;;;;4.03;3.20;;;;;;;7.93;100.00;100496.03;1692741;81;21050;-71
2022/09/25 01:23:17;;;;;;;4.67;3.33;;;;;;;7.91;100.00;100497.81;1695611;83;21061;-70
2022/09/25 01:26:30;;;;;;;4.30;3.30;;;;;;;7.83;100.00;100495.50;1656168;85;21128;-71
2022/09/25 01:29:20;;;;;;;4.05;3.33;;;;;;;7.76;100.00;100497.85;1657067;84;21036;-71
2022/09/25 01:32:12;;;;;;;5.55;3.62;;;;;;;7.70;100.00;100494.21;1684348;82;21098;-71
2022/09/25 01:34:48;;;;;;;5.50;3.58;;;;;;;7.66;100.00;100490.90;1714104;81;21079;-72
2022/09/25 01:37:29;;;;;;;4.20;3.33;;;;;;;7.60;100.00;100491.09;1698059;82;21107;-71
2022/09/25 01:40:26;;;;;;;4.03;3.42;;;;;;;7.61;100.00;100486.39;1704922;82;21134;-71
2022/09/25 01:43:00;;;;;;;5.22;3.35;;;;;;;7.58;100.00;100489.03;1713638;82;21642;-70
2022/09/25 01:45:34;;;;;;;5.53;3.35;;;;;;;7.55;100.00;100482.29;1705960;81;21084;-71
2022/09/25 01:48:04;;;;;;;3.80;3.20;;;;;;;7.54;100.00;100481.91;1690217;82;20995;-71
2022/09/25 01:50:58;;;;;;;5.60;3.50;;;;;;;7.70;100.00;100483.96;1712190;82;21051;-71
2022/09/25 01:53:38;;;;;;;4.53;3.50;;;;;;;7.70;100.00;100492.48;1699265;82;21003;-71
2022/09/25 01:56:30;;;;;;;6.90;3.40;;;;;;;7.69;100.00;100498.50;1710942;82;21067;-72
2022/09/25 01:59:15;;;;;;;4.40;3.60;;;;;;;7.68;100.00;100505.78;1714867;81;21118;-72
2022/09/25 02:01:46;;;;;;;4.30;3.40;;;;;;;7.69;100.00;100498.50;1698078;82;21035;-72
2022/09/25 02:04:45;;;;;;;5.15;3.70;;;;;;;7.69;100.00;100498.95;1693456;82;21034;-70
2022/09/25 02:07:19;;;;;;;4.10;3.12;;;;;;;7.70;100.00;100501.89;1664664;85;21076;-71
2022/09/25 02:10:09;;;;;;;4.60;3.60;;;;;;;7.63;100.00;100508.50;1671609;84;21047;-71
2022/09/25 02:12:45;;;;;;;3.77;3.40;;;;;;;7.65;100.00;100508.91;1667572;84;21059;-71
2022/09/25 02:15:31;;;;;;;3.92;3.42;;;;;;;7.60;100.00;100502.63;1685558;83;21077;-71
2022/09/25 02:20:57;;;;;;;4.35;3.30;;;;;;;7.57;100.00;100507.86;1691140;85;21086;-70
2022/09/25 02:23:41;;;;;;;3.75;3.30;;;;;;;7.59;100.00;100500.52;1673263;85;21126;-71
2022/09/25 02:26:13;;;;;;;3.62;3.17;;;;;;;7.57;100.00;100498.90;1679614;83;21038;-71
2022/09/25 02:28:42;;;;;;;4.78;3.40;;;;;;;7.55;100.00;100503.23;1690434;84;21062;-71
2022/09/25 02:31:12;;;;;;;4.45;3.30;;;;;;;7.53;100.00;100502.45;1678553;83;21634;-71
2022/09/25 02:33:39;;;;;;;4.40;3.27;;;;;;;7.41;100.00;100517.30;1684589;84;21103;-71
2022/09/25 02:36:06;;;;;;;3.87;3.15;;;;;;;7.47;100.00;100518.00;1674411;84;21111;-71
2022/09/25 02:38:35;;;;;;;4.40;3.40;;;;;;;7.42;100.00;100513.86;1674693;85;21027;-71
2022/09/25 02:41:14;;;;;;;4.45;3.60;;;;;;;7.40;100.00;100510.52;1674345;84;21591;-71
2022/09/25 02:44:01;;;;;;;5.72;3.90;;;;;;;7.43;100.00;100513.41;1682696;85;21116;-72
2022/09/25 02:47:20;;;;;;;4.55;3.22;;;;;;;7.40;100.00;100518.20;1682383;85;21056;-72
2022/09/25 02:50:09;;;;;;;4.85;3.75;;;;;;;7.40;100.00;100516.05;1672351;83;21078;-71
2022/09/25 02:53:15;;;;;;;4.85;3.55;;;;;;;7.34;100.00;100518.38;1689494;83;21507;-72
2022/09/25 02:56:05;;;;;;;3.80;3.40;;;;;;;7.37;100.00;100522.12;1667198;85;21055;-71
2022/09/25 02:58:40;;;;;;;5.10;3.62;;;;;;;7.33;100.00;100524.38;1667394;84;21083;-71
2022/09/25 03:01:13;;;;;;;4.17;3.10;;;;;;;7.35;100.00;100528.17;1652735;85;21083;-70
2022/09/25 03:03:41;;;;;;;4.15;3.65;;;;;;;7.32;100.00;100530.81;1684732;84;21134;-71
2022/09/25 03:06:09;;;;;;;4.80;3.70;;;;;;;7.31;100.00;100528.70;1681045;84;21474;-71
2022/09/25 03:08:41;;;;;;;5.40;3.45;;;;;;;7.28;100.00;100526.25;1677130;85;21044;-71
2022/09/25 03:11:16;;;;;;;3.70;3.20;;;;;;;7.33;100.00;100532.51;1679920;83;21118;-71
2022/09/25 03:13:44;;;;;;;4.17;3.60;;;;;;;7.32;100.00;100532.95;1678356;85;21579;-71
2022/09/25 03:16:33;;;;;;;5.62;3.50;;;;;;;7.33;100.00;100535.90;1671973;85;21060;-71
2022/09/25 03:19:02;;;;;;;4.75;3.70;;;;;;;7.31;100.00;100540.67;1681824;84;21549;-71
2022/09/25 03:21:29;;;;;;;4.05;3.60;;;;;;;7.31;100.00;100537.67;1678769;84;21080;-72
2022/09/25 03:23:55;;;;;;;6.03;3.50;;;;;;;7.30;100.00;100535.14;1684901;85;21059;-69
2022/09/25 03:26:26;;;;;;;4.12;3.58;;;;;;;7.32;100.00;100548.32;1665933;85;21060;-71
2022/09/25 03:28:53;;;;;;;4.08;3.37;;;;;;;7.29;100.00;100549.68;1681048;84;21091;-72
2022/09/25 03:31:21;;;;;;;5.58;4.15;;;;;;;7.28;100.00;100551.00;1669683;85;21032;-72
2022/09/25 03:33:48;;;;;;;4.15;3.72;;;;;;;7.27;100.00;100555.73;1678446;85;21060;-71
2022/09/25 03:36:19;;;;;;;5.22;3.70;;;;;;;7.29;100.00;100559.09;1681846;82;21131;-71
2022/09/25 03:38:52;;;;;;;7.00;3.83;;;;;;;7.27;100.00;100559.58;1678620;84;21096;-71
2022/09/25 03:41:21;;;;;;;5.55;4.10;;;;;;;7.23;100.00;100567.78;1675053;85;21027;-72
2022/09/25 03:43:50;;;;;;;5.67;4.03;;;;;;;7.23;100.00;100563.95;1676899;84;21082;-72
2022/09/25 03:46:21;;;;;;;6.37;4.28;;;;;;;7.28;100.00;100561.23;1666743;85;21052;-72
2022/09/25 03:48:51;;;;;;;6.47;4.12;;;;;;;7.27;100.00;100560.41;1665554;84;21071;-71
2022/09/25 03:51:19;;;;;;;7.35;4.00;;;;;;;7.25;100.00;100562.17;1683953;85;21084;-72
2022/09/25 03:53:47;;;;;;;4.90;4.20;;;;;;;7.28;100.00;100567.22;1653941;84;21087;-72
2022/09/25 03:56:19;;;;;;;5.00;3.87;;;;;;;7.30;100.00;100568.02;1665703;84;21527;-72
2022/09/25 03:58:47;;;;;;;4.17;3.77;;;;;;;7.31;100.00;100562.45;1665045;85;21031;-72
2022/09/25 04:01:18;;;;;;;5.22;4.33;;;;;;;7.28;100.00;100567.22;1659433;85;21055;-71
2022/09/25 04:03:46;;;;;;;5.05;4.30;;;;;;;7.30;100.00;100563.31;1673413;85;21089;-72
2022/09/25 04:06:18;;;;;;;5.95;4.50;;;;;;;7.34;100.00;100569.60;1687706;84;21032;-71
2022/09/25 04:08:47;;;;;;;5.58;4.12;;;;;;;7.37;100.00;100571.22;1676483;85;21068;-72
2022/09/25 04:11:17;;;;;;;6.33;4.50;;;;;;;7.38;100.00;100573.75;1678908;85;21571;-71
2022/09/25 04:13:44;;;;;;;5.90;4.20;;;;;;;7.40;100.00;100579.66;1668838;84;21050;-71
2022/09/25 04:16:15;;;;;;;7.00;4.15;;;;;;;7.40;100.00;100586.48;1658121;85;21020;-72
2022/09/25 04:18:44;;;;;;;5.78;4.03;;;;;;;7.47;100.00;100592.28;1678867;84;21071;-70
2022/09/25 04:21:12;;;;;;;5.85;4.25;;;;;;;7.53;100.00;100599.78;1680261;84;21107;-71
2022/09/25 04:23:41;;;;;;;5.28;4.37;;;;;;;7.57;100.00;100589.84;1677223;84;21146;-73
2022/09/25 04:26:08;;;;;;;6.55;4.40;;;;;;;7.58;100.00;100592.36;1676392;85;21150;-71
2022/09/25 04:28:37;;;;;;;4.72;4.10;;;;;;;7.63;100.00;100596.89;1673994;84;21103;-71
2022/09/25 04:31:05;;;;;;;4.92;4.08;;;;;;;7.67;100.00;100602.77;1673235;85;21138;-72
2022/09/25 04:33:47;;;;;;;6.00;4.40;;;;;;;7.72;100.00;100597.04;1680151;82;21052;-69
2022/09/25 04:36:17;;;;;;;5.92;4.00;;;;;;;7.75;100.00;100600.80;1682330;84;21130;-71
2022/09/25 04:38:46;;;;;;;5.85;4.50;;;;;;;7.78;100.00;100594.28;1683570;85;21055;-70
2022/09/25 04:41:16;;;;;;;9.23;4.40;;;;;;;7.83;100.00;100597.56;1666285;85;21531;-71
2022/09/25 04:43:43;;;;;;;6.85;4.90;;;;;;;7.92;100.00;100603.28;1670546;85;21154;-72
2022/09/25 04:46:12;;;;;;;5.47;4.37;;;;;;;7.97;100.00;100607.83;1666439;85;21369;-71
2022/09/25 04:48:45;;;;;;;5.58;4.40;;;;;;;8.05;100.00;100604.58;1668568;85;21131;-72
2022/09/25 04:51:12;;;;;;;6.03;4.45;;;;;;;8.10;100.00;100601.86;1677098;85;21118;-72
2022/09/25 04:53:40;;;;;;;6.62;4.58;;;;;;;8.13;100.00;100610.30;1682243;84;21084;-71
2022/09/25 04:56:10;;;;;;;5.35;4.37;;;;;;;8.18;100.00;100608.86;1672528;84;21135;-71
2022/09/25 04:58:37;;;;;;;6.10;4.40;;;;;;;8.23;100.00;100605.69;1673886;84;21051;-71
2022/09/25 05:01:08;;;;;;;5.62;4.40;;;;;;;8.34;100.00;100607.91;1673306;85;21098;-72
2022/09/25 05:03:36;;;;;;;6.05;4.40;;;;;;;8.42;100.00;100609.36;1674390;84;21118;-70
2022/09/25 05:06:04;;;;;;;6.85;4.58;;;;;;;8.57;100.00;100603.31;1679638;84;21589;-72
2022/09/25 05:08:31;;;;;;;6.12;4.50;;;;;;;8.64;100.00;100611.21;1673816;85;21059;-71
2022/09/25 05:10:58;;;;;;;6.67;4.67;;;;;;;8.70;100.00;100613.56;1654458;84;21099;-71
2022/09/25 05:13:27;;;;;;;5.42;4.37;;;;;;;8.81;100.00;100619.14;1652560;84;21047;-70
2022/09/25 05:15:55;;;;;;;5.97;4.50;;;;;;;8.91;100.00;100623.52;1679252;84;21052;-71
2022/09/25 05:18:23;;;;;;;6.08;4.55;;;;;;;8.98;100.00;100635.68;1683602;85;21059;-72
2022/09/25 05:20:54;;;;;;;6.10;4.40;;;;;;;9.09;100.00;100637.44;1678638;84;21056;-70
2022/09/25 05:23:22;;;;;;;5.90;4.67;;;;;;;9.19;100.00;100641.80;1660358;84;21059;-72
2022/09/25 05:25:54;;;;;;;7.35;4.50;;;;;;;9.25;100.00;100640.29;1682099;83;21087;-71
2022/09/25 05:28:22;;;;;;;6.58;4.47;;;;;;;9.39;100.00;100644.93;1682367;85;21056;-72
2022/09/25 05:30:49;;;;;;;5.28;4.37;;;;;;;9.47;100.00;100645.48;1683085;85;21055;-72
2022/09/25 05:33:17;;;;;;;6.25;4.22;;;;;;;9.55;100.00;100651.59;1681404;84;21107;-72
2022/09/25 05:35:47;;;;;;;5.90;4.35;;;;;;;9.63;100.00;100663.73;1663515;84;20996;-71
2022/09/25 05:38:14;;;;;;;5.75;4.25;;;;;;;9.67;100.00;100665.30;1685363;83;21051;-71
2022/09/25 05:40:42;;;;;;;6.37;4.25;;;;;;;9.86;100.00;100662.84;1671566;84;21134;-71
2022/09/25 05:43:08;;;;;;;5.55;4.37;;;;;;;9.91;100.00;100666.52;1677869;84;21048;-70
2022/09/25 05:45:37;;;;;;;9.18;4.30;;;;;;;9.97;100.00;100668.85;1653226;85;21861;-71
2022/09/25 05:48:07;;;;;;;4.72;3.80;;;;;;;10.11;100.00;100664.00;1675419;84;21075;-72
2022/09/25 05:50:34;;;;;;;5.30;4.37;;;;;;;10.24;100.00;100678.52;1675863;84;21563;-72
2022/09/25 05:53:04;;;;;;;5.50;4.10;;;;;;;10.36;100.00;100686.20;1677026;84;21060;-71
2022/09/25 05:55:32;;;;;;;5.65;3.80;;;;;;;10.52;100.00;100687.28;1681377;83;21043;-71
2022/09/25 05:58:03;;;;;;;4.30;3.90;;;;;;;10.50;100.00;100689.51;1667091;85;21556;-71
2022/09/25 06:00:34;;;;;;;7.42;4.47;;;;;;;10.49;100.00;100692.55;1679463;85;21123;-70
2022/09/25 06:03:01;;;;;;;6.78;4.08;;;;;;;10.72;100.00;100695.90;1677584;85;21064;-72
2022/09/25 06:05:27;;;;;;;4.95;3.85;;;;;;;10.83;100.00;100710.01;1673083;85;21081;-71
2022/09/25 06:07:55;;;;;;;5.20;3.42;;;;;;;10.76;100.00;100711.16;1673627;84;21098;-71
2022/09/25 06:10:25;;;;;;;5.60;4.30;;;;;;;10.86;100.00;100706.45;1666978;85;21060;-71
2022/09/25 06:12:57;;;;;;;7.42;4.03;;;;;;;10.98;100.00;100720.56;1668528;85;21079;-72
2022/09/25 06:15:29;;;;;;;5.17;3.95;;;;;;;11.11;100.00;100722.16;1678456;84;21035;-72
2022/09/25 06:17:56;;;;;;;4.37;3.65;;;;;;;11.19;100.00;100719.66;1675584;83;21154;-70
2022/09/25 06:20:24;;;;;;;5.00;3.90;;;;;;;11.30;100.00;100723.51;1652024;85;21142;-70
2022/09/25 06:22:55;;;;;;;4.72;4.00;;;;;;;11.48;100.00;100739.45;1679800;83;21079;-71
2022/09/25 06:25:26;;;;;;;5.28;3.50;;;;;;;11.51;100.00;100747.03;1674728;85;21074;-70
2022/09/25 06:27:55;;;;;;;5.78;3.90;;;;;;;11.62;100.00;100747.41;1676895;83;21122;-71
2022/09/25 06:30:33;;;;;;;3.90;3.50;;;;;;;11.77;100.00;100756.19;1679245;83;21051;-71
2022/09/25 06:32:59;;;;;;;4.83;3.52;;;;;;;11.88;100.00;100763.47;1673770;85;21080;-70
2022/09/25 06:35:30;;;;;;;5.78;3.60;;;;;;;12.00;100.00;100764.66;1683788;84;21012;-71
2022/09/25 06:38:01;;;;;;;6.42;3.55;;;;;;;12.09;100.00;100764.24;1675298;84;21095;-71
2022/09/25 06:40:30;;;;;;;4.35;3.58;;;;;;;12.20;100.00;100773.59;1658464;84;21095;-71
2022/09/25 06:43:03;;;;;;;4.08;3.22;;;;;;;12.37;100.00;100784.44;1684177;84;21117;-71
2022/09/25 06:45:32;;;;;;;3.70;3.20;;;;;;;12.48;100.00;100790.38;1684887;83;21040;-72
2022/09/25 06:48:03;;;;;;;3.87;2.98;;;;;;;12.56;100.00;100810.22;1673058;84;20976;-71
2022/09/25 06:50:50;;;;;;;4.80;3.35;;;;;;;12.73;100.00;100822.78;1671410;83;21520;-72
2022/09/25 06:53:19;;;;;;;3.42;3.12;;;;;;;12.87;100.00;100817.78;1657772;85;21075;-72
2022/09/25 06:55:48;;;;;;;4.55;3.00;;;;;;;13.00;100.00;100824.03;1668899;85;21038;-72
2022/09/25 06:58:19;;;;;;;3.75;3.15;;;;;;;13.09;100.00;100830.48;1655473;85;21527;-73
2022/09/25 07:00:49;;;;;;;4.53;2.92;;;;;;;13.25;100.00;100846.55;1672925;84;21008;-71
2022/09/25 07:06:05;;;;;;;3.62;3.20;;;;;;;13.58;100.00;100849.19;1666644;84;21058;-71
2022/09/25 07:08:33;;;;;;;4.15;3.45;;;;;;;13.75;100.00;100859.52;1672147;85;21053;-71
2022/09/25 07:11:01;;;;;;;4.17;2.70;;;;;;;13.87;100.00;100865.81;1658820;85;21489;-71
2022/09/25 07:13:31;;;;;;;3.37;2.90;;;;;;;13.96;100.00;100873.08;1680809;84;21577;-71
2022/09/25 07:16:03;;;;;;;4.37;3.50;;;;;;;14.12;100.00;100873.58;1670607;83;21054;-70
2022/09/25 07:18:32;;;;;;;4.87;3.70;;;;;;;14.27;100.00;100885.69;1672016;84;21081;-71
2022/09/25 07:21:09;;;;;;;5.67;3.17;;;;;;;14.35;100.00;100899.53;1689949;83;21073;-71
2022/09/25 07:23:37;;;;;;;6.10;3.87;;;;;;;14.46;100.00;100893.80;1653864;85;20965;-71
2022/09/25 07:26:09;;;;;;;9.83;4.10;;;;;;;14.48;100.00;100908.80;1654509;85;21038;-71
2022/09/25 07:28:38;;;;;;;3.65;2.98;;;;;;;14.46;100.00;100927.47;1674600;84;21022;-72
2022/09/25 07:31:19;;;;;;;5.67;3.87;;;;;;;14.55;100.00;100911.41;1682230;85;21334;-72
2022/09/25 07:33:46;;;;;;;7.40;4.00;;;;;;;14.70;100.00;100912.35;1669444;84;21615;-73
2022/09/25 07:36:15;;;;;;;6.47;3.60;;;;;;;14.75;100.00;100914.25;1669287;85;21162;-72
2022/09/25 07:38:44;;;;;;;7.33;3.75;;;;;;;14.86;100.00;100918.36;1675202;84;21087;-72
2022/09/25 07:41:12;;;;;;;4.92;3.22;;;;;;;14.96;100.00;100919.55;1690669;84;21068;-73
2022/09/25 07:43:42;;;;;;;7.12;4.08;;;;;;;15.13;100.00;100917.77;1682885;84;21088;-71
2022/09/25 07:46:09;;;;;;;5.37;2.90;;;;;;;15.21;100.00;100916.86;1673483;85;21426;-71
2022/09/25 07:48:36;;;;;;;6.75;4.00;;;;;;;15.25;100.00;100933.92;1675122;84;21091;-71
2022/09/25 07:51:09;;;;;;;4.45;2.60;;;;;;;15.42;100.00;100930.35;1680076;84;21056;-70
2022/09/25 07:53:39;;;;;;;3.72;2.72;;;;;;;15.51;100.00;100923.34;1665439;85;21119;-71
2022/09/25 07:56:07;;;;;;;5.87;3.60;;;;;;;15.57;100.00;100919.53;1659763;85;21535;-71
2022/09/25 07:58:35;;;;;;;8.13;4.67;;;;;;;15.60;100.00;100931.05;1667005;84;21040;-73
2022/09/25 08:01:06;;;;;;;5.92;3.20;;;;;;;15.67;100.00;100923.26;1678356;84;21091;-72
2022/09/25 08:03:33;;;;;;;3.72;2.62;;;;;;;15.73;100.00;100935.91;1673603;85;21126;-72
2022/09/25 08:06:08;;;;;;;2.95;2.60;;;;;;;15.81;100.00;100941.95;1680639;85;21063;-72
2022/09/25 08:08:35;;;;;;;6.60;2.98;;;;;;;15.82;100.00;100941.04;1680551;85;21064;-72
2022/09/25 08:11:10;;;;;;;9.35;4.22;;;;;;;15.91;100.00;100933.98;1677873;84;21064;-73
2022/09/25 08:13:37;;;;;;;4.20;2.92;;;;;;;16.04;100.00;100935.41;1683642;84;21134;-72
2022/09/25 08:16:10;;;;;;;3.95;2.42;;;;;;;16.29;100.00;100924.82;1655362;85;21618;-71
2022/09/25 08:18:44;;;;;;;6.70;2.62;;;;;;;16.28;100.00;100931.79;1680808;85;21130;-73
2022/09/25 08:21:14;;;;;;;3.90;2.30;;;;;;;16.02;100.00;100939.86;1683563;84;21071;-71
2022/09/25 08:23:43;;;;;;;6.92;2.83;;;;;;;16.11;100.00;100943.66;1670958;85;21588;-71
2022/09/25 08:26:10;;;;;;;5.92;3.15;;;;;;;16.15;100.00;100934.28;1670693;84;21032;-72
2022/09/25 08:28:38;;;;;;;6.78;3.95;;;;;;;16.21;100.00;100938.27;1665331;84;21182;-72
2022/09/25 08:31:05;;;;;;;5.00;3.30;;;;;;;16.23;100.00;100939.02;1671818;84;21082;-72
2022/09/25 08:33:35;;;;;;;3.50;2.40;;;;;;;16.41;100.00;100936.58;1681688;84;21068;-71
2022/09/25 08:36:05;;;;;;;3.92;2.60;;;;;;;16.42;100.00;100933.07;1689289;84;21063;-72
2022/09/25 08:38:32;;;;;;;2.20;2.00;;;;;;;16.60;100.00;100947.95;1686874;84;21519;-72
2022/09/25 08:41:22;;;;;;;2.25;2.05;;;;;;;16.61;96.85;100935.34;1684078;83;21525;-71
2022/09/25 08:44:07;;;;;;;5.85;3.20;;;;;;;16.70;98.76;100933.09;1678522;85;21061;-73
2022/09/25 08:49:42;;;;;;;5.58;3.30;;;;;;;16.99;98.63;100926.92;1668936;84;21567;-72
2022/09/25 08:52:15;;;;;;;3.10;2.05;;;;;;;17.13;98.11;100927.33;1682791;85;21552;-71
2022/09/25 08:54:44;;;;;;;10.50;4.60;;;;;;;17.02;93.96;100933.20;1679025;85;21053;-72
2022/09/25 08:57:26;;;;;;;10.93;4.37;;;;;;;16.85;94.01;100928.27;1656131;85;21082;-73
2022/09/25 08:59:58;;;;;;;2.67;2.47;;;;;;;16.76;91.50;100935.31;1683132;82;21099;-69
2022/09/25 09:02:37;;;;;;;3.75;2.40;;;;;;;16.78;92.84;100926.48;1680260;84;21063;-70
2022/09/25 09:05:19;;;;;;;3.58;2.52;;;;;;;16.93;93.41;100925.16;1676527;85;21111;-70
2022/09/25 09:07:53;;;;;;;3.17;2.40;;;;;;;17.21;95.98;100919.00;1676133;84;21091;-70
2022/09/25 09:10:38;;;;;;;;;;;;;;;17.38;93.35;100920.52;1651433;85;21130;-69
2022/09/25 09:13:44;;;;;;;3.83;2.27;;;;;;;17.63;92.29;100915.80;1678846;84;20163;-70
2022/09/25 09:16:50;;;;;;;2.55;2.35;;;;;;;17.55;92.26;100920.22;1628000;88;21040;-71
2022/09/25 09:19:17;;;;;;;2.55;1.80;;;;;;;17.75;94.69;100922.78;1686523;84;21071;-71
2022/09/25 09:22:11;;;;;;;2.42;2.10;;;;;;;17.74;89.48;100938.06;1663638;84;21125;-70
2022/09/25 09:25:01;;;;;;;2.23;2.03;;;;;;;17.78;88.55;100934.75;1664990;85;21071;-70
2022/09/25 09:27:44;;;;;;;3.35;2.10;;;;;;;17.56;88.78;100930.18;1658149;85;21090;-70
2022/09/25 09:30:35;;;;;;;3.95;2.05;;;;;;;17.77;90.64;100928.72;1667474;85;21524;-70
2022/09/25 09:33:34;;;;;;;2.30;2.10;;;;;;;17.92;89.55;100920.83;1686172;83;21079;-70
2022/09/25 09:36:18;;;;;;;2.50;2.12;;;;;;;17.82;87.83;100931.86;1677982;85;21119;-71
2022/09/25 09:39:05;;;;;;;2.77;1.92;;;;;;;17.73;86.76;100920.75;1673517;85;21056;-69
2022/09/25 09:42:05;;;;;;;2.42;2.00;;;;;;;17.55;87.00;100929.80;1686076;84;21068;-70
2022/09/25 09:44:49;;;;;;;2.47;2.12;;;;;;;17.55;90.69;100916.31;1674727;85;21059;-72
2022/09/25 09:47:45;;;;;;;2.10;1.90;;;;;;;17.47;90.86;100925.58;1680127;85;21236;-70
2022/09/25 09:50:47;;;;;;;3.10;2.80;;;;;;;17.46;89.61;100926.05;1661587;85;21063;-71
2022/09/25 09:53:51;;;;;;;3.17;2.62;;;;;;;17.67;90.28;100918.56;1669950;84;21146;-72
2022/09/25 09:56:34;;;;;;;2.70;2.30;;;;;;;18.05;90.20;100916.94;1681013;84;21118;-71
2022/09/25 09:59:06;;;;;;;2.10;1.90;;;;;;;18.29;83.92;100919.14;1662718;84;21090;-72
2022/09/25 10:01:39;;;;;;;2.80;2.30;;;;;;;18.32;81.51;100907.17;1656173;85;21116;-72
2022/09/25 10:04:14;;;;;;;2.83;1.90;;;;;;;18.37;77.59;100916.83;1675614;85;21055;-71
2022/09/25 10:06:53;;;;;;;2.10;1.90;;;;;;;18.48;75.03;100912.63;1670753;84;21091;-72
2022/09/25 10:09:21;;;;;;;2.30;2.10;;;;;;;18.48;77.73;100903.50;1668012;85;21122;-72
2022/09/25 10:11:53;;;;;;;4.62;2.20;;;;;;;18.48;79.02;100912.63;1682816;84;21131;-72
2022/09/25 10:14:27;;;;;;;2.20;2.00;;;;;;;18.18;78.39;100906.83;1683275;85;21079;-71
2022/09/25 10:16:55;;;;;;;2.35;1.98;;;;;;;18.22;81.06;100910.06;1672663;85;21060;-72
2022/09/25 10:19:27;;;;;;;2.02;1.82;;;;;;;18.70;80.15;100921.87;1682434;85;21087;-71
2022/09/25 10:22:15;;;;;;;3.17;2.10;;;;;;;19.04;77.99;100912.09;1678759;85;21052;-72
2022/09/25 10:24:57;;;;;;;3.42;2.62;;;;;;;19.28;77.82;100912.92;1687577;85;21079;-72
2022/09/25 10:27:39;;;;;;;7.10;4.80;;;;;;;19.30;73.01;100907.12;1682963;84;21048;-71
2022/09/25 10:30:17;;;;;;;3.90;3.42;;;;;;;19.44;77.37;100905.23;1674072;83;21051;-72
2022/09/25 10:33:18;;;;;;;2.30;2.10;;;;;;;19.41;76.35;100908.44;1679456;84;21119;-71
2022/09/25 10:35:47;;;;;;;2.75;2.10;;;;;;;18.99;75.27;100917.66;1691892;83;21067;-73
2022/09/25 10:38:47;;;;;;;2.20;2.00;;;;;;;18.67;76.28;100916.87;1683118;84;21143;-72
2022/09/25 10:41:17;;;;;;;2.67;2.05;;;;;;;18.20;74.67;100915.86;1667893;84;21086;-71
2022/09/25 10:43:54;;;;;;;2.17;1.87;;;;;;;17.98;78.06;100917.36;1681009;85;21425;-72
2022/09/25 10:52:14;;;;;;;1.90;1.80;;;;;;;18.40;79.89;100901.43;1640661;86;21100;-72
2022/09/25 10:54:41;;;;;;;2.47;1.80;;;;;;;18.59;75.04;100901.80;1642232;86;21133;-71
2022/09/25 10:57:33;;;;;;;2.22;2.02;;;;;;;18.74;72.64;100909.46;1633799;84;21125;-72
2022/09/25 11:00:25;;;;;;;4.97;1.98;;;;;;;18.87;70.53;100892.47;1649407;85;21101;-72
2022/09/25 11:02:58;;;;;;;2.20;1.87;;;;;;;18.74;72.05;100899.86;1652816;86;21091;-71
2022/09/25 11:05:36;;;;;;;2.50;1.80;;;;;;;18.64;71.33;100893.64;1643172;86;21616;-73
2022/09/25 11:08:08;;;;;;;4.67;3.60;;;;;;;18.45;69.42;100908.47;1645159;86;21097;-71
2022/09/25 11:10:49;;;;;;;2.27;2.00;;;;;;;18.35;70.81;100912.63;1642017;86;21635;-72
2022/09/25 11:13:35;;;;;;;2.00;1.77;;;;;;;18.14;70.90;100907.16;1644022;86;21119;-72
2022/09/25 11:16:00;;;;;;;4.90;3.70;;;;;;;17.98;67.54;100909.98;1626368;86;21057;-72
2022/09/25 11:19:06;;;;;;;4.50;3.95;;;;;;;17.81;67.21;100913.25;1648311;85;21517;-73
2022/09/25 11:21:50;;;;;;;2.67;2.22;;;;;;;17.98;68.88;100914.75;1622374;86;21155;-72
2022/09/25 11:24:23;;;;;;;;;;;;;;;17.64;73.26;100910.98;1651514;85;21540;-72
2022/09/25 11:27:41;;;;;;;2.10;1.90;;;;;;;17.49;71.37;100906.78;1651998;85;20162;-72
2022/09/25 11:30:15;;;;;;;2.67;2.08;;;;;;;17.41;72.72;100914.63;1643144;86;21404;-71
2022/09/25 11:33:22;;;;;;;;;;;;;;;17.52;72.55;100910.50;1649642;86;21591;-73
2022/09/25 11:35:53;;;;;;;3.07;2.00;;;;;;;17.68;72.16;100908.97;1646944;84;20142;-71
2022/09/25 11:41:51;;;;;;;3.17;2.10;;;;;;;18.51;69.26;100906.73;1627514;87;21081;-73
2022/09/25 11:45:01;;;;;;;1.62;1.52;;;;;;;19.25;68.94;100904.48;1644786;86;21064;-72
2022/09/25 11:47:52;;;;;;;2.98;1.80;;;;;;;19.69;64.00;100902.44;1638257;86;21073;-71
2022/09/25 11:50:21;;;;;;;1.77;1.60;;;;;;;19.96;61.88;100912.58;1647362;85;21150;-72
2022/09/25 11:53:00;;;;;;;4.33;1.90;;;;;;;20.14;61.29;100905.58;1649318;85;21060;-71
2022/09/25 11:55:44;;;;;;;3.12;1.72;;;;;;;20.03;60.70;100906.88;1649515;85;21084;-72
2022/09/25 11:58:32;;;;;;;2.95;1.70;;;;;;;19.24;60.15;100910.16;1651487;85;21084;-71
2022/09/25 12:01:30;;;;;;;3.42;1.60;;;;;;;18.84;62.05;100918.31;1646352;86;22290;-71
2022/09/25 12:04:33;;;;;;;2.58;1.52;;;;;;;18.76;62.10;100901.87;1648597;85;21084;-72
2022/09/25 12:07:11;;;;;;;2.02;1.82;;;;;;;18.56;63.63;100909.83;1643660;85;22253;-71
2022/09/25 12:09:49;;;;;;;2.40;2.20;;;;;;;18.42;63.09;100904.77;1649546;86;21584;-71
2022/09/25 12:12:31;;;;;;;2.10;1.50;;;;;;;18.51;62.87;100903.27;1641741;85;21097;-71
2022/09/25 12:15:27;;;;;;;2.20;1.80;;;;;;;18.89;64.83;100895.32;1645063;86;21247;-71
2022/09/25 12:18:27;;;;;;;2.00;1.80;;;;;;;18.91;63.70;100899.95;1644958;85;21100;-71
2022/09/25 12:21:02;;;;;;;2.65;2.05;;;;;;;18.54;60.67;100900.45;1642511;84;21025;-71
2022/09/25 12:23:34;;;;;;;2.62;1.70;;;;;;;18.30;60.42;100905.63;1648946;87;21084;-71